createdAt,value
2017-12-28T00:02:12.974Z,97553.58
2017-12-28T00:04:40.420Z,97560.41
2017-12-28T00:07:07.868Z,97570.45
2017-12-28T00:09:35.337Z,97571.16
2017-12-28T00:12:02.784Z,97580.47
2017-12-28T00:14:30.252Z,97586.17
2017-12-28T00:16:57.692Z,97587.72
2017-12-28T00:19:25.150Z,97592.20
2017-12-28T00:21:52.589Z,97592.07
2017-12-28T00:24:20.065Z,97594.48
2017-12-28T00:26:47.506Z,97600.53
2017-12-28T00:29:14.972Z,97608.84
2017-12-28T00:31:42.406Z,97614.47
2017-12-28T00:34:09.866Z,97615.54
2017-12-28T00:36:37.301Z,97616.83
2017-12-28T00:39:04.770Z,97625.04
2017-12-28T00:41:32.221Z,97632.50
2017-12-28T00:43:59.690Z,97635.16
2017-12-28T00:46:27.134Z,97640.53
2017-12-28T00:48:54.602Z,97631.01
2017-12-28T00:51:22.105Z,97634.04
2017-12-28T00:53:49.546Z,97642.78
2017-12-28T00:56:17.014Z,97650.32
2017-12-28T00:58:44.463Z,97650.80
2017-12-28T01:01:11.921Z,97654.20
2017-12-28T01:03:39.369Z,97663.16
2017-12-28T01:06:06.833Z,97667.69
2017-12-28T01:08:34.283Z,97669.66
2017-12-28T01:11:01.759Z,97669.33
2017-12-28T01:13:29.198Z,97665.09
2017-12-28T01:15:56.671Z,97672.86
2017-12-28T01:18:24.111Z,97674.36
2017-12-28T01:20:51.558Z,97674.69
2017-12-28T01:23:19.017Z,97687.47
2017-12-28T01:25:46.472Z,97696.33
2017-12-28T01:28:13.930Z,97689.23
2017-12-28T01:30:41.366Z,97696.78
2017-12-28T01:33:08.822Z,97701.55
2017-12-28T01:35:36.262Z,97710.48
2017-12-28T01:38:03.722Z,97715.80
2017-12-28T01:40:31.163Z,97722.27
2017-12-28T01:42:58.628Z,97721.17
2017-12-28T01:45:26.066Z,97736.75
2017-12-28T01:48:02.294Z,97745.73
2017-12-28T01:50:29.730Z,97753.67
2017-12-28T01:52:57.215Z,97755.26
2017-12-28T01:55:24.657Z,97752.16
2017-12-28T01:57:52.106Z,97757.27
2017-12-28T02:00:19.571Z,97768.19
2017-12-28T02:02:47.019Z,97765.27
2017-12-28T02:05:14.487Z,97766.08
2017-12-28T02:07:41.927Z,97765.34
2017-12-28T02:10:09.402Z,97778.58
2017-12-28T02:12:36.846Z,97774.98
2017-12-28T02:15:04.314Z,97785.73
2017-12-28T02:17:31.762Z,97795.41
2017-12-28T02:19:59.227Z,97786.66
2017-12-28T02:22:26.665Z,97794.36
2017-12-28T02:24:54.134Z,97798.44
2017-12-28T02:27:21.577Z,97799.77
2017-12-28T02:29:49.019Z,97810.95
2017-12-28T02:32:16.486Z,97806.39
2017-12-28T02:34:43.926Z,97808.15
2017-12-28T02:37:11.390Z,97812.59
2017-12-28T02:39:38.886Z,97823.09
2017-12-28T02:42:06.352Z,97825.41
2017-12-28T02:44:33.790Z,97825.54
2017-12-28T02:47:01.254Z,97826.23
2017-12-28T02:49:28.705Z,97835.59
2017-12-28T02:51:56.172Z,97838.80
2017-12-28T02:54:23.610Z,97848.48
2017-12-28T02:56:51.086Z,97845.52
2017-12-28T02:59:18.531Z,97845.39
2017-12-28T03:01:45.978Z,97860.16
2017-12-28T03:04:13.441Z,97867.41
2017-12-28T03:06:40.883Z,97874.27
2017-12-28T03:09:08.346Z,97869.16
2017-12-28T03:11:35.795Z,97877.48
2017-12-28T03:14:03.268Z,97880.70
2017-12-28T03:16:30.710Z,97883.95
2017-12-28T03:18:58.620Z,97884.89
2017-12-28T03:21:26.065Z,97885.16
2017-12-28T03:23:53.526Z,97887.73
2017-12-28T03:26:20.978Z,97889.57
2017-12-28T03:28:48.441Z,97896.56
2017-12-28T03:31:15.883Z,97906.61
2017-12-28T03:33:43.361Z,97901.95
2017-12-28T03:36:10.804Z,97912.41
2017-12-28T03:38:38.281Z,97913.34
2017-12-28T03:41:05.718Z,97913.34
2017-12-28T03:43:33.153Z,97914.41
2017-12-28T03:46:00.626Z,97913.61
2017-12-28T03:48:28.069Z,97922.63
2017-12-28T03:50:55.547Z,97921.28
2017-12-28T03:53:22.989Z,97924.34
2017-12-28T03:55:50.441Z,97924.07
2017-12-28T03:58:17.882Z,97934.69
2017-12-28T04:00:45.343Z,97937.23
2017-12-28T04:03:12.792Z,97932.14
2017-12-28T04:05:40.266Z,97935.76
2017-12-28T04:08:07.706Z,97939.25
2017-12-28T04:10:35.171Z,97937.36
2017-12-28T04:13:02.613Z,97940.85
2017-12-28T04:15:30.107Z,97939.66
2017-12-28T04:17:57.552Z,97941.92
2017-12-28T04:20:24.993Z,97954.55
2017-12-28T04:22:52.453Z,97951.08
2017-12-28T04:25:19.893Z,97965.02
2017-12-28T04:27:47.365Z,97970.10
2017-12-28T04:30:14.810Z,97979.38
2017-12-28T04:32:42.270Z,97975.34
2017-12-28T04:35:09.701Z,97983.66
2017-12-28T04:37:37.181Z,97976.70
2017-12-28T04:40:04.620Z,97976.97
2017-12-28T04:42:32.082Z,97987.27
2017-12-28T04:44:59.524Z,97991.97
2017-12-28T04:47:26.987Z,97998.98
2017-12-28T04:49:54.432Z,98009.02
2017-12-28T04:52:21.885Z,98007.24
2017-12-28T04:54:49.331Z,98011.26
2017-12-28T04:57:16.799Z,98018.52
2017-12-28T04:59:44.237Z,98020.41
2017-12-28T05:02:11.720Z,98017.19
2017-12-28T05:04:39.166Z,98028.42
2017-12-28T05:07:06.610Z,98021.68
2017-12-28T05:09:34.071Z,98029.48
2017-12-28T05:12:01.517Z,98038.35
2017-12-28T05:14:28.974Z,98035.42
2017-12-28T05:16:56.414Z,98043.61
2017-12-28T05:19:23.873Z,98046.59
2017-12-28T05:21:51.309Z,98058.34
2017-12-28T05:24:18.770Z,98060.66
2017-12-28T05:26:46.218Z,98064.28
2017-12-28T05:29:13.677Z,98071.45
2017-12-28T05:31:41.113Z,98071.30
2017-12-28T05:34:08.569Z,98075.20
2017-12-28T05:36:36.007Z,98071.95
2017-12-28T05:39:03.482Z,98083.67
2017-12-28T05:41:30.923Z,98086.99
2017-12-28T05:43:58.370Z,98092.36
2017-12-28T05:46:25.835Z,98088.34
2017-12-28T05:48:53.281Z,98093.30
2017-12-28T05:51:21.243Z,98094.36
2017-12-28T05:53:48.690Z,98096.11
2017-12-28T05:56:16.158Z,98106.75
2017-12-28T05:58:43.594Z,98111.56
2017-12-28T06:01:11.054Z,98108.59
2017-12-28T06:03:38.488Z,98116.13
2017-12-28T06:06:05.952Z,98129.70
2017-12-28T06:08:33.408Z,98132.64
2017-12-28T06:11:00.881Z,98138.45
2017-12-28T06:13:28.334Z,98137.22
2017-12-28T06:15:55.817Z,98141.89
2017-12-28T06:18:23.259Z,98140.43
2017-12-28T06:20:50.707Z,98153.45
2017-12-28T06:23:18.176Z,98158.25
2017-12-28T06:25:45.618Z,98161.22
2017-12-28T06:28:13.082Z,98158.66
2017-12-28T06:30:40.523Z,98169.81
2017-12-28T06:33:07.982Z,98180.23
2017-12-28T06:35:35.426Z,98188.86
2017-12-28T06:38:02.894Z,98189.35
2017-12-28T06:40:30.348Z,98191.88
2017-12-28T06:42:57.812Z,98195.92
2017-12-28T06:45:25.245Z,98194.17
2017-12-28T06:47:52.931Z,98202.77
2017-12-28T06:50:20.386Z,98206.14
2017-12-28T06:52:47.846Z,98209.37
2017-12-28T06:55:15.292Z,98216.72
2017-12-28T06:57:42.769Z,98217.65
2017-12-28T07:00:10.209Z,98228.75
2017-12-28T07:02:37.650Z,98234.75
2017-12-28T07:05:05.106Z,98231.72
2017-12-28T07:07:32.550Z,98238.36
2017-12-28T07:10:00.009Z,98242.56
2017-12-28T07:12:27.454Z,98243.17
2017-12-28T07:14:54.905Z,98258.07
2017-12-28T07:17:22.377Z,98265.06
2017-12-28T07:19:49.829Z,98265.39
2017-12-28T07:22:17.261Z,98260.53
2017-12-28T07:24:44.723Z,98262.83
2017-12-28T07:27:12.162Z,98266.36
2017-12-28T07:29:39.620Z,98262.13
2017-12-28T07:32:07.062Z,98273.92
2017-12-28T07:34:34.526Z,98275.05
2017-12-28T07:37:01.965Z,98277.67
2017-12-28T07:39:29.442Z,98274.09
2017-12-28T07:41:56.882Z,98271.81
2017-12-28T07:44:24.326Z,98280.31
2017-12-28T07:46:51.787Z,98291.45
2017-12-28T07:49:19.238Z,98292.66
2017-12-28T07:51:46.695Z,98299.39
2017-12-28T07:54:14.153Z,98297.80
2017-12-28T07:56:41.627Z,98313.18
2017-12-28T07:59:09.066Z,98304.98
2017-12-28T08:01:36.525Z,98306.97
2017-12-28T08:04:03.971Z,98309.24
2017-12-28T08:06:31.430Z,98314.82
2017-12-28T08:08:58.872Z,98316.19
2017-12-28T08:11:26.329Z,98319.97
2017-12-28T08:13:53.771Z,98322.16
2017-12-28T08:16:21.231Z,98325.41
2017-12-28T08:18:48.670Z,98323.53
2017-12-28T08:21:16.133Z,98326.52
2017-12-28T08:23:43.620Z,98334.84
2017-12-28T08:26:11.049Z,98337.09
2017-12-28T08:28:38.486Z,98349.19
2017-12-28T08:31:05.949Z,98341.23
2017-12-28T08:33:33.399Z,98339.79
2017-12-28T08:36:00.869Z,98333.28
2017-12-28T08:38:28.302Z,98337.36
2017-12-28T08:40:55.777Z,98340.18
2017-12-28T08:43:23.226Z,98339.84
2017-12-28T08:45:50.681Z,98331.22
2017-12-28T08:48:18.142Z,98342.66
2017-12-28T08:50:45.598Z,98339.94
2017-12-28T08:53:13.044Z,98351.55
2017-12-28T08:55:40.514Z,98353.78
2017-12-28T08:58:07.967Z,98353.95
2017-12-28T09:00:35.409Z,98363.13
2017-12-28T09:03:02.869Z,98372.10
2017-12-28T09:05:30.309Z,98365.09
2017-12-28T09:07:57.773Z,98374.94
2017-12-28T09:10:25.222Z,98377.40
2017-12-28T09:12:52.691Z,98383.52
2017-12-28T09:15:20.137Z,98384.16
2017-12-28T09:17:47.606Z,98389.23
2017-12-28T09:20:15.054Z,98399.56
2017-12-28T09:22:42.538Z,98390.22
2017-12-28T09:25:09.985Z,98393.55
2017-12-28T09:27:37.475Z,98402.38
2017-12-28T09:30:04.942Z,98407.21
2017-12-28T09:32:32.405Z,98399.16
2017-12-28T09:34:59.867Z,98402.14
2017-12-28T09:37:27.333Z,98400.34
2017-12-28T09:39:54.787Z,98412.29
2017-12-28T09:42:22.250Z,98414.86
2017-12-28T09:44:49.700Z,98426.88
2017-12-28T09:47:17.166Z,98424.94
2017-12-28T09:49:44.614Z,98424.22
2017-12-28T09:52:12.083Z,98435.62
2017-12-28T09:54:39.534Z,98444.48
2017-12-28T09:57:07.006Z,98437.86
2017-12-28T09:59:34.454Z,98442.06
2017-12-28T10:02:01.930Z,98451.09
2017-12-28T10:04:29.373Z,98456.37
2017-12-28T10:06:56.846Z,98454.00
2017-12-28T10:09:24.289Z,98448.12
2017-12-28T10:11:51.764Z,98446.27
2017-12-28T10:14:19.205Z,98452.47
2017-12-28T10:16:46.674Z,98453.00
2017-12-28T10:19:14.122Z,98449.64
2017-12-28T10:21:41.597Z,98450.70
2017-12-28T10:24:09.045Z,98459.67
2017-12-28T10:26:36.485Z,98460.19
2017-12-28T10:29:03.945Z,98461.06
2017-12-28T10:31:31.398Z,98463.27
2017-12-28T10:33:58.860Z,98466.81
2017-12-28T10:36:26.306Z,98476.98
2017-12-28T10:38:53.778Z,98467.78
2017-12-28T10:41:21.226Z,98471.59
2017-12-28T10:43:48.728Z,98478.76
2017-12-28T10:46:16.178Z,98485.73
2017-12-28T10:48:43.646Z,98486.83
2017-12-28T10:51:11.091Z,98495.80
2017-12-28T10:53:38.554Z,98500.28
2017-12-28T10:56:06.002Z,98505.99
2017-12-28T10:58:33.466Z,98505.73
2017-12-28T11:01:00.937Z,98509.97
2017-12-28T11:03:28.398Z,98518.89
2017-12-28T11:05:56.530Z,98519.70
2017-12-28T11:08:23.999Z,98520.77
2017-12-28T11:10:51.441Z,98525.34
2017-12-28T11:13:18.906Z,98534.48
2017-12-28T11:15:46.354Z,98532.05
2017-12-28T11:18:13.822Z,98538.14
2017-12-28T11:20:41.278Z,98533.84
2017-12-28T11:23:08.750Z,98537.66
2017-12-28T11:25:36.192Z,98548.81
2017-12-28T11:28:03.654Z,98538.59
2017-12-28T11:30:31.102Z,98534.26
2017-12-28T11:32:58.599Z,98537.81
2017-12-28T11:35:26.062Z,98549.11
2017-12-28T11:37:53.542Z,98552.26
2017-12-28T11:40:20.991Z,98552.53
2017-12-28T11:42:48.458Z,98558.23
2017-12-28T11:45:15.923Z,98561.55
2017-12-28T11:47:43.364Z,98561.67
2017-12-28T11:50:10.829Z,98569.38
2017-12-28T11:52:48.189Z,98568.17
2017-12-28T11:55:20.489Z,98571.11
2017-12-28T11:57:53.477Z,98570.43
2017-12-28T12:00:26.585Z,98576.91
2017-12-28T12:02:59.557Z,98575.53
2017-12-28T12:05:27.017Z,98585.77
2017-12-28T12:07:54.460Z,98590.84
2017-12-28T12:10:22.858Z,98588.97
2017-12-28T12:12:50.321Z,98591.90
2017-12-28T12:15:17.786Z,98591.40
2017-12-28T12:17:45.240Z,98582.69
2017-12-28T12:20:12.697Z,98583.36
2017-12-28T12:22:40.135Z,98577.90
2017-12-28T12:25:07.597Z,98570.77
2017-12-28T12:27:35.042Z,98571.16
2017-12-28T12:30:02.506Z,98570.32
2017-12-28T12:32:29.957Z,98583.41
2017-12-28T12:34:57.418Z,98584.55
2017-12-28T12:37:24.870Z,98587.91
2017-12-28T12:39:52.331Z,98592.88
2017-12-28T12:42:19.787Z,98599.86
2017-12-28T12:44:47.246Z,98607.08
2017-12-28T12:47:14.687Z,98613.47
2017-12-28T12:49:42.142Z,98617.48
2017-12-28T12:52:09.579Z,98618.09
2017-12-28T12:54:37.046Z,98624.70
2017-12-28T12:57:04.501Z,98630.55
2017-12-28T12:59:31.960Z,98628.69
2017-12-28T13:01:59.397Z,98630.00
2017-12-28T13:04:26.854Z,98630.63
2017-12-28T13:06:54.294Z,98622.93
2017-12-28T13:09:21.751Z,98619.65
2017-12-28T13:11:49.195Z,98626.05
2017-12-28T13:14:16.663Z,98622.70
2017-12-28T13:16:44.115Z,98616.18
2017-12-28T13:19:11.597Z,98622.88
2017-12-28T13:21:39.046Z,98635.16
2017-12-28T13:24:06.487Z,98635.56
2017-12-28T13:26:33.939Z,98638.59
2017-12-28T13:29:01.445Z,98652.77
2017-12-28T13:31:28.906Z,98656.30
2017-12-28T13:33:56.345Z,98665.33
2017-12-28T13:36:23.805Z,98659.96
2017-12-28T13:38:51.245Z,98655.75
2017-12-28T13:41:18.710Z,98649.25
2017-12-28T13:43:46.158Z,98650.49
2017-12-28T13:46:13.609Z,98658.73
2017-12-28T13:48:41.053Z,98667.08
2017-12-28T13:51:08.526Z,98672.93
2017-12-28T13:53:35.990Z,98670.20
2017-12-28T13:56:03.454Z,98670.92
2017-12-28T13:58:30.893Z,98675.75
2017-12-28T14:00:58.355Z,98685.88
2017-12-28T14:03:25.804Z,98683.91
2017-12-28T14:05:53.273Z,98680.56
2017-12-28T14:08:20.718Z,98687.69
2017-12-28T14:10:48.179Z,98695.33
2017-12-28T14:13:15.630Z,98710.94
2017-12-28T14:15:43.095Z,98709.19
2017-12-28T14:18:10.539Z,98708.16
2017-12-28T14:20:37.998Z,98710.27
2017-12-28T14:23:05.450Z,98715.84
2017-12-28T14:25:32.910Z,98722.44
2017-12-28T14:28:00.360Z,98726.93
2017-12-28T14:30:27.818Z,98726.26
2017-12-28T14:32:55.611Z,98727.67
2017-12-28T14:35:23.074Z,98734.19
2017-12-28T14:37:50.517Z,98737.56
2017-12-28T14:40:18.801Z,98735.86
2017-12-28T14:42:46.249Z,98747.05
2017-12-28T14:45:13.686Z,98744.17
2017-12-28T14:47:41.157Z,98756.45
2017-12-28T14:50:08.599Z,98753.68
2017-12-28T14:52:36.062Z,98755.00
2017-12-28T14:55:03.504Z,98756.02
2017-12-28T14:57:30.975Z,98752.95
2017-12-28T14:59:58.418Z,98756.45
2017-12-28T15:02:25.874Z,98758.55
2017-12-28T15:04:53.328Z,98768.66
2017-12-28T15:07:20.790Z,98774.03
2017-12-28T16:31:45.238Z,98862.23
2017-12-28T16:34:12.701Z,98862.12
2017-12-28T16:36:40.137Z,98864.33
2017-12-28T16:39:07.611Z,98870.67
2017-12-28T16:41:35.051Z,98872.60
2017-12-28T16:44:02.510Z,98869.55
2017-12-28T16:46:29.949Z,98871.58
2017-12-28T16:48:57.409Z,98879.41
2017-12-28T16:51:24.850Z,98885.65
2017-12-28T16:53:52.309Z,98888.23
2017-12-28T16:56:19.746Z,98890.05
2017-12-28T16:58:47.206Z,98895.61
2017-12-28T17:01:14.646Z,98896.78
2017-12-28T17:03:42.111Z,98907.47
2017-12-28T17:06:09.550Z,98902.67
2017-12-28T17:08:37.022Z,98905.30
2017-12-28T17:11:04.462Z,98902.83
2017-12-28T17:13:31.925Z,98905.72
2017-12-28T17:15:59.358Z,98903.55
2017-12-28T17:18:26.818Z,98903.49
2017-12-28T17:20:54.266Z,98901.79
2017-12-28T17:23:21.730Z,98905.04
2017-12-28T17:25:49.165Z,98910.55
2017-12-28T17:28:16.627Z,98912.92
2017-12-28T17:30:44.069Z,98913.92
2017-12-28T17:33:11.527Z,98917.38
2017-12-28T17:35:38.966Z,98926.82
2017-12-28T17:38:06.434Z,98918.77
2017-12-28T17:40:34.502Z,98921.34
2017-12-28T17:43:01.957Z,98914.22
2017-12-28T17:45:29.406Z,98918.77
2017-12-28T17:47:56.867Z,98921.66
2017-12-28T17:50:24.311Z,98921.61
2017-12-28T17:52:51.783Z,98934.66
2017-12-28T17:55:19.930Z,98940.27
2017-12-28T17:57:47.370Z,98939.56
2017-12-28T18:00:14.833Z,98944.55
2017-12-28T18:02:42.278Z,98939.88
2017-12-28T18:05:09.738Z,98947.49
2017-12-28T18:10:05.115Z,98943.32
2017-12-28T18:12:32.563Z,98952.24
2017-12-28T18:15:00.029Z,98950.75
2017-12-28T18:17:29.364Z,98953.89
2017-12-28T18:19:59.728Z,98955.05
2017-12-28T18:22:28.069Z,98953.34
2017-12-28T18:24:58.384Z,98957.37
2017-12-28T18:27:30.222Z,98958.17
2017-12-28T18:29:57.790Z,98964.58
2017-12-28T18:32:25.230Z,98968.59
2017-12-28T18:34:52.694Z,98969.48
2017-12-28T18:37:20.134Z,98983.41
2017-12-28T18:39:47.602Z,98976.23
2017-12-28T18:42:15.064Z,98982.95
2017-12-28T18:44:42.536Z,98989.41
2017-12-28T18:47:09.994Z,98986.01
2017-12-28T18:49:37.454Z,98994.42
2017-12-28T18:52:04.904Z,98986.87
2017-12-28T18:54:33.354Z,98987.24
2017-12-28T18:57:00.799Z,98988.67
2017-12-28T20:21:25.249Z,99070.73
2017-12-28T20:23:53.547Z,99074.92
2017-12-28T20:26:21.018Z,99074.52
2017-12-28T20:28:48.459Z,99081.80
2017-12-28T20:31:15.931Z,99080.18
2017-12-28T20:33:43.376Z,99079.80
2017-12-28T20:36:10.846Z,99087.00
2017-12-28T20:38:38.286Z,99092.85
2017-12-28T20:41:05.750Z,99087.82
2017-12-28T20:43:33.194Z,99089.95
2017-12-28T20:46:00.653Z,99096.88
2017-12-28T20:48:28.097Z,99095.89
2017-12-28T20:50:55.553Z,99094.42
2017-12-28T20:53:23.011Z,99096.63
2017-12-28T20:55:50.474Z,99098.77
2017-12-28T20:58:17.915Z,99101.39
2017-12-28T21:00:45.397Z,99099.28
2017-12-28T21:03:12.842Z,99103.69
2017-12-28T21:05:40.319Z,99108.81
2017-12-28T21:08:07.754Z,99106.44
2017-12-28T21:10:35.202Z,99119.96
2017-12-28T21:13:02.666Z,99114.59
2017-12-28T21:15:30.113Z,99120.31
2017-12-28T21:17:57.573Z,99136.72
2017-12-28T21:20:25.014Z,99137.68
2017-12-28T21:22:52.483Z,99150.67
2017-12-28T21:25:19.929Z,99143.48
2017-12-28T21:27:47.394Z,99142.23
2017-12-28T21:30:14.835Z,99147.77
2017-12-28T21:32:42.294Z,99140.76
2017-12-28T21:35:09.739Z,99146.31
2017-12-28T21:37:37.202Z,99147.58
2017-12-28T21:40:04.646Z,99152.38
2017-12-28T21:42:32.114Z,99150.80
2017-12-28T21:44:59.556Z,99148.32
2017-12-28T21:47:27.018Z,99151.75
2017-12-28T21:49:54.469Z,99152.20
2017-12-28T21:52:21.938Z,99159.03
2017-12-28T21:54:49.387Z,99165.63
2017-12-28T21:57:16.850Z,99161.61
2017-12-28T21:59:44.292Z,99157.48
2017-12-28T22:02:11.756Z,99160.20
2017-12-28T22:04:39.203Z,99162.59
2017-12-28T22:07:06.666Z,99162.58
2017-12-28T22:09:34.101Z,99160.33
2017-12-28T22:12:01.578Z,99167.97
2017-12-28T22:14:29.025Z,99172.31
2017-12-28T22:16:56.483Z,99173.25
2017-12-28T22:19:23.936Z,99178.02
2017-12-28T22:21:51.476Z,99182.53
2017-12-28T22:24:18.914Z,99176.31
2017-12-28T22:26:46.386Z,99183.80
2017-12-28T22:29:13.825Z,99181.84
2017-12-28T22:31:41.262Z,99181.50
2017-12-28T22:34:09.022Z,99183.70
2017-12-28T22:36:36.468Z,99193.69
2017-12-28T22:39:03.930Z,99186.61
2017-12-28T22:41:31.443Z,99190.33
2017-12-28T22:43:58.914Z,99199.42
2017-12-28T22:46:26.354Z,99193.52
2017-12-28T22:48:53.806Z,99193.69
2017-12-28T22:51:21.284Z,99193.08
2017-12-28T22:53:48.726Z,99198.70
2017-12-28T22:56:16.197Z,99205.00
2017-12-28T22:58:43.656Z,99202.97
2017-12-28T23:01:11.112Z,99206.64
2017-12-28T23:03:38.564Z,99200.80
2017-12-28T23:06:06.030Z,99208.37
2017-12-28T23:08:33.477Z,99213.69
2017-12-28T23:11:00.945Z,99213.41
2017-12-28T23:13:28.419Z,99214.07
2017-12-28T23:15:56.187Z,99218.02
2017-12-28T23:18:23.642Z,99222.30
2017-12-28T23:20:51.145Z,99224.11
2017-12-28T23:23:18.602Z,99223.44
2017-12-28T23:25:46.043Z,99229.74
2017-12-28T23:28:13.506Z,99237.17
2017-12-28T23:30:40.942Z,99234.86
2017-12-28T23:33:08.401Z,99239.27
2017-12-28T23:35:35.865Z,99246.45
2017-12-28T23:38:03.306Z,99241.14
2017-12-28T23:40:30.769Z,99242.00
2017-12-28T23:42:58.205Z,99242.04
2017-12-28T23:45:25.658Z,99239.06
2017-12-28T23:47:53.121Z,99240.05
2017-12-28T23:50:20.582Z,99243.50
2017-12-28T23:52:48.034Z,99253.45
2017-12-28T23:55:15.510Z,99246.63
2017-12-28T23:57:42.954Z,99245.64
